sensor_id;sensor_type;location;lat;lon;timestamp;P1;durP1;ratioP1;P2;durP2;ratioP2
78614;SDS011;67937;52.488;20.952;2023-04-15T00:02:00;6.60;;;5.30;;
78614;SDS011;67937;52.488;20.952;2023-04-15T00:04:30;6.70;;;5.60;;
78614;SDS011;67937;52.488;20.952;2023-04-15T00:06:58;7.30;;;5.30;;
78614;SDS011;67937;52.488;20.952;2023-04-15T00:09:28;7.00;;;6.00;;
78614;SDS011;67937;52.488;20.952;2023-04-15T00:11:56;6.40;;;5.50;;
78614;SDS011;67937;52.488;20.952;2023-04-15T00:14:24;7.60;;;5.50;;
78614;SDS011;67937;52.488;20.952;2023-04-15T00:16:52;6.50;;;5.30;;
78614;SDS011;67937;52.488;20.952;2023-04-15T00:19:22;6.30;;;5.30;;
78614;SDS011;67937;52.488;20.952;2023-04-15T00:21:50;5.60;;;4.70;;
78614;SDS011;67937;52.488;20.952;2023-04-15T00:24:18;7.00;;;5.60;;
78614;SDS011;67937;52.488;20.952;2023-04-15T00:26:46;7.80;;;5.80;;
78614;SDS011;67937;52.488;20.952;2023-04-15T00:29:15;6.40;;;5.60;;
78614;SDS011;67937;52.488;20.952;2023-04-15T00:31:43;7.40;;;5.30;;
78614;SDS011;67937;52.488;20.952;2023-04-15T00:34:11;5.80;;;4.60;;
78614;SDS011;67937;52.488;20.952;2023-04-15T00:36:39;8.20;;;5.70;;
78614;SDS011;67937;52.488;20.952;2023-04-15T00:39:07;6.20;;;5.50;;
78614;SDS011;67937;52.488;20.952;2023-04-15T00:41:35;7.20;;;4.70;;
78614;SDS011;67937;52.488;20.952;2023-04-15T00:44:05;6.40;;;4.90;;
78614;SDS011;67937;52.488;20.952;2023-04-15T00:46:36;6.60;;;5.30;;
78614;SDS011;67937;52.488;20.952;2023-04-15T00:49:05;5.60;;;4.90;;
78614;SDS011;67937;52.488;20.952;2023-04-15T00:51:34;7.70;;;5.90;;
78614;SDS011;67937;52.488;20.952;2023-04-15T00:54:03;6.50;;;4.30;;
78614;SDS011;67937;52.488;20.952;2023-04-15T00:56:34;6.70;;;5.70;;
78614;SDS011;67937;52.488;20.952;2023-04-15T00:59:03;9.50;;;6.80;;
78614;SDS011;67937;52.488;20.952;2023-04-15T01:01:33;6.80;;;5.70;;
78614;SDS011;67937;52.488;20.952;2023-04-15T01:04:02;8.80;;;5.80;;
78614;SDS011;67937;52.488;20.952;2023-04-15T01:06:31;6.60;;;5.40;;
78614;SDS011;67937;52.488;20.952;2023-04-15T01:08:59;7.60;;;5.30;;
78614;SDS011;67937;52.488;20.952;2023-04-15T01:11:28;7.90;;;5.80;;
78614;SDS011;67937;52.488;20.952;2023-04-15T01:13:57;6.60;;;5.70;;
78614;SDS011;67937;52.488;20.952;2023-04-15T01:16:25;8.00;;;5.80;;
78614;SDS011;67937;52.488;20.952;2023-04-15T01:18:53;7.90;;;5.80;;
78614;SDS011;67937;52.488;20.952;2023-04-15T01:21:22;7.40;;;5.20;;
78614;SDS011;67937;52.488;20.952;2023-04-15T01:23:50;7.80;;;6.20;;
78614;SDS011;67937;52.488;20.952;2023-04-15T01:26:20;6.80;;;6.10;;
78614;SDS011;67937;52.488;20.952;2023-04-15T01:28:49;7.60;;;6.10;;
78614;SDS011;67937;52.488;20.952;2023-04-15T01:31:17;9.40;;;5.60;;
78614;SDS011;67937;52.488;20.952;2023-04-15T01:33:45;8.10;;;6.40;;
78614;SDS011;67937;52.488;20.952;2023-04-15T01:36:13;7.20;;;5.40;;
78614;SDS011;67937;52.488;20.952;2023-04-15T01:38:41;7.00;;;6.20;;
78614;SDS011;67937;52.488;20.952;2023-04-15T01:41:09;6.60;;;5.60;;
78614;SDS011;67937;52.488;20.952;2023-04-15T01:43:37;8.40;;;6.80;;
78614;SDS011;67937;52.488;20.952;2023-04-15T01:46:05;6.40;;;5.70;;
78614;SDS011;67937;52.488;20.952;2023-04-15T01:48:33;10.00;;;6.10;;
78614;SDS011;67937;52.488;20.952;2023-04-15T01:51:01;8.80;;;6.30;;
78614;SDS011;67937;52.488;20.952;2023-04-15T01:53:30;9.90;;;7.20;;
78614;SDS011;67937;52.488;20.952;2023-04-15T01:55:57;7.00;;;5.70;;
78614;SDS011;67937;52.488;20.952;2023-04-15T01:58:25;8.00;;;6.40;;
78614;SDS011;67937;52.488;20.952;2023-04-15T02:00:53;8.50;;;6.10;;
78614;SDS011;67937;52.488;20.952;2023-04-15T02:03:21;7.00;;;4.80;;
78614;SDS011;67937;52.488;20.952;2023-04-15T02:05:49;6.80;;;5.50;;
78614;SDS011;67937;52.488;20.952;2023-04-15T02:08:17;10.10;;;5.90;;
78614;SDS011;67937;52.488;20.952;2023-04-15T02:10:45;8.00;;;6.60;;
78614;SDS011;67937;52.488;20.952;2023-04-15T02:13:13;6.90;;;5.40;;
78614;SDS011;67937;52.488;20.952;2023-04-15T02:15:48;5.40;;;4.90;;
78614;SDS011;67937;52.488;20.952;2023-04-15T02:18:17;7.00;;;5.90;;
78614;SDS011;67937;52.488;20.952;2023-04-15T02:20:45;9.30;;;5.80;;
78614;SDS011;67937;52.488;20.952;2023-04-15T02:23:14;9.00;;;6.50;;
78614;SDS011;67937;52.488;20.952;2023-04-15T02:25:42;8.00;;;6.40;;
78614;SDS011;67937;52.488;20.952;2023-04-15T02:28:10;6.40;;;5.70;;
78614;SDS011;67937;52.488;20.952;2023-04-15T02:30:38;6.50;;;5.60;;
78614;SDS011;67937;52.488;20.952;2023-04-15T02:33:07;11.00;;;6.80;;
78614;SDS011;67937;52.488;20.952;2023-04-15T02:35:35;6.80;;;6.00;;
78614;SDS011;67937;52.488;20.952;2023-04-15T02:38:04;8.20;;;6.30;;
78614;SDS011;67937;52.488;20.952;2023-04-15T02:40:32;8.80;;;6.30;;
78614;SDS011;67937;52.488;20.952;2023-04-15T02:43:00;9.80;;;6.50;;
78614;SDS011;67937;52.488;20.952;2023-04-15T02:45:28;12.50;;;6.70;;
78614;SDS011;67937;52.488;20.952;2023-04-15T02:47:56;14.50;;;7.10;;
78614;SDS011;67937;52.488;20.952;2023-04-15T02:50:24;8.10;;;5.90;;
78614;SDS011;67937;52.488;20.952;2023-04-15T02:52:52;6.60;;;4.40;;
78614;SDS011;67937;52.488;20.952;2023-04-15T02:55:20;9.70;;;6.10;;
78614;SDS011;67937;52.488;20.952;2023-04-15T02:57:48;8.10;;;5.60;;
78614;SDS011;67937;52.488;20.952;2023-04-15T03:00:16;8.70;;;6.70;;
78614;SDS011;67937;52.488;20.952;2023-04-15T03:02:45;9.20;;;6.20;;
78614;SDS011;67937;52.488;20.952;2023-04-15T03:05:13;7.80;;;5.10;;
78614;SDS011;67937;52.488;20.952;2023-04-15T03:07:41;8.90;;;6.10;;
78614;SDS011;67937;52.488;20.952;2023-04-15T03:10:09;9.00;;;6.90;;
78614;SDS011;67937;52.488;20.952;2023-04-15T03:12:37;9.70;;;6.90;;
78614;SDS011;67937;52.488;20.952;2023-04-15T03:15:06;8.50;;;6.30;;
78614;SDS011;67937;52.488;20.952;2023-04-15T03:17:35;7.90;;;6.00;;
78614;SDS011;67937;52.488;20.952;2023-04-15T03:20:03;7.50;;;5.70;;
78614;SDS011;67937;52.488;20.952;2023-04-15T03:22:32;8.90;;;6.50;;
78614;SDS011;67937;52.488;20.952;2023-04-15T03:25:00;8.60;;;6.60;;
78614;SDS011;67937;52.488;20.952;2023-04-15T03:27:28;7.80;;;6.30;;
78614;SDS011;67937;52.488;20.952;2023-04-15T03:29:57;7.20;;;6.20;;
78614;SDS011;67937;52.488;20.952;2023-04-15T03:32:25;9.10;;;6.10;;
78614;SDS011;67937;52.488;20.952;2023-04-15T03:34:53;7.70;;;6.10;;
78614;SDS011;67937;52.488;20.952;2023-04-15T03:37:21;8.90;;;7.10;;
78614;SDS011;67937;52.488;20.952;2023-04-15T03:39:49;9.70;;;7.10;;
78614;SDS011;67937;52.488;20.952;2023-04-15T03:42:17;8.60;;;6.50;;
78614;SDS011;67937;52.488;20.952;2023-04-15T03:44:45;7.80;;;6.00;;
78614;SDS011;67937;52.488;20.952;2023-04-15T03:47:12;9.50;;;7.70;;
78614;SDS011;67937;52.488;20.952;2023-04-15T03:49:40;9.20;;;6.80;;
78614;SDS011;67937;52.488;20.952;2023-04-15T03:52:08;10.00;;;6.80;;
78614;SDS011;67937;52.488;20.952;2023-04-15T03:54:36;9.70;;;7.00;;
78614;SDS011;67937;52.488;20.952;2023-04-15T03:57:04;11.30;;;6.80;;
78614;SDS011;67937;52.488;20.952;2023-04-15T03:59:32;10.20;;;7.40;;
78614;SDS011;67937;52.488;20.952;2023-04-15T04:02:00;10.50;;;6.40;;
78614;SDS011;67937;52.488;20.952;2023-04-15T04:04:28;7.20;;;6.00;;
78614;SDS011;67937;52.488;20.952;2023-04-15T04:06:56;8.10;;;6.70;;
78614;SDS011;67937;52.488;20.952;2023-04-15T04:09:25;8.20;;;6.00;;
78614;SDS011;67937;52.488;20.952;2023-04-15T04:11:53;7.40;;;6.40;;
78614;SDS011;67937;52.488;20.952;2023-04-15T04:14:21;9.20;;;7.30;;
78614;SDS011;67937;52.488;20.952;2023-04-15T04:16:54;9.40;;;7.70;;
78614;SDS011;67937;52.488;20.952;2023-04-15T04:19:22;12.20;;;7.30;;
78614;SDS011;67937;52.488;20.952;2023-04-15T04:21:51;7.90;;;6.20;;
78614;SDS011;67937;52.488;20.952;2023-04-15T04:24:19;8.90;;;6.60;;
78614;SDS011;67937;52.488;20.952;2023-04-15T04:26:47;9.10;;;6.80;;
78614;SDS011;67937;52.488;20.952;2023-04-15T04:29:15;10.10;;;7.30;;
78614;SDS011;67937;52.488;20.952;2023-04-15T04:31:43;7.20;;;5.30;;
78614;SDS011;67937;52.488;20.952;2023-04-15T04:34:11;9.40;;;5.80;;
78614;SDS011;67937;52.488;20.952;2023-04-15T04:36:39;8.70;;;7.20;;
78614;SDS011;67937;52.488;20.952;2023-04-15T04:39:07;10.00;;;6.60;;
78614;SDS011;67937;52.488;20.952;2023-04-15T04:41:35;4.90;;;4.20;;
78614;SDS011;67937;52.488;20.952;2023-04-15T04:44:03;8.60;;;5.70;;
78614;SDS011;67937;52.488;20.952;2023-04-15T04:46:31;8.40;;;6.00;;
78614;SDS011;67937;52.488;20.952;2023-04-15T04:48:58;7.30;;;6.50;;
78614;SDS011;67937;52.488;20.952;2023-04-15T04:51:26;7.80;;;6.40;;
78614;SDS011;67937;52.488;20.952;2023-04-15T04:53:54;9.60;;;6.10;;
78614;SDS011;67937;52.488;20.952;2023-04-15T04:56:23;8.60;;;6.90;;
78614;SDS011;67937;52.488;20.952;2023-04-15T04:58:51;7.00;;;5.50;;
78614;SDS011;67937;52.488;20.952;2023-04-15T05:01:19;9.60;;;6.00;;
78614;SDS011;67937;52.488;20.952;2023-04-15T05:03:47;11.10;;;7.20;;
78614;SDS011;67937;52.488;20.952;2023-04-15T05:06:15;8.00;;;6.50;;
78614;SDS011;67937;52.488;20.952;2023-04-15T05:08:43;8.60;;;6.30;;
78614;SDS011;67937;52.488;20.952;2023-04-15T05:11:12;8.40;;;6.80;;
78614;SDS011;67937;52.488;20.952;2023-04-15T05:13:40;7.90;;;6.80;;
78614;SDS011;67937;52.488;20.952;2023-04-15T05:16:08;11.90;;;7.20;;
78614;SDS011;67937;52.488;20.952;2023-04-15T05:18:36;8.20;;;6.30;;
78614;SDS011;67937;52.488;20.952;2023-04-15T05:21:04;10.00;;;7.40;;
78614;SDS011;67937;52.488;20.952;2023-04-15T05:23:32;11.60;;;7.80;;
78614;SDS011;67937;52.488;20.952;2023-04-15T05:26:00;9.30;;;6.60;;
78614;SDS011;67937;52.488;20.952;2023-04-15T05:28:28;8.30;;;6.20;;
78614;SDS011;67937;52.488;20.952;2023-04-15T05:30:56;8.60;;;7.00;;
78614;SDS011;67937;52.488;20.952;2023-04-15T05:33:24;9.70;;;7.50;;
78614;SDS011;67937;52.488;20.952;2023-04-15T05:35:52;7.70;;;5.30;;
78614;SDS011;67937;52.488;20.952;2023-04-15T05:38:20;9.50;;;6.50;;
78614;SDS011;67937;52.488;20.952;2023-04-15T05:40:48;10.60;;;7.30;;
78614;SDS011;67937;52.488;20.952;2023-04-15T05:43:16;11.10;;;6.60;;
78614;SDS011;67937;52.488;20.952;2023-04-15T05:45:44;11.20;;;8.00;;
78614;SDS011;67937;52.488;20.952;2023-04-15T05:48:12;8.00;;;6.00;;
78614;SDS011;67937;52.488;20.952;2023-04-15T05:50:40;9.80;;;6.50;;
78614;SDS011;67937;52.488;20.952;2023-04-15T05:53:09;10.00;;;7.30;;
78614;SDS011;67937;52.488;20.952;2023-04-15T05:55:37;9.10;;;7.70;;
78614;SDS011;67937;52.488;20.952;2023-04-15T05:58:05;10.70;;;7.40;;
78614;SDS011;67937;52.488;20.952;2023-04-15T06:00:33;8.30;;;6.90;;
78614;SDS011;67937;52.488;20.952;2023-04-15T06:03:01;8.10;;;5.30;;
78614;SDS011;67937;52.488;20.952;2023-04-15T06:05:29;10.70;;;7.50;;
78614;SDS011;67937;52.488;20.952;2023-04-15T06:07:57;7.30;;;5.40;;
78614;SDS011;67937;52.488;20.952;2023-04-15T06:10:25;11.10;;;7.40;;
78614;SDS011;67937;52.488;20.952;2023-04-15T06:12:53;8.50;;;5.80;;
78614;SDS011;67937;52.488;20.952;2023-04-15T06:15:21;10.10;;;6.70;;
78614;SDS011;67937;52.488;20.952;2023-04-15T06:17:49;10.20;;;7.60;;
78614;SDS011;67937;52.488;20.952;2023-04-15T06:20:17;8.70;;;6.80;;
78614;SDS011;67937;52.488;20.952;2023-04-15T06:22:45;10.80;;;7.50;;
78614;SDS011;67937;52.488;20.952;2023-04-15T06:25:13;10.30;;;6.90;;
78614;SDS011;67937;52.488;20.952;2023-04-15T06:27:41;9.40;;;6.90;;
78614;SDS011;67937;52.488;20.952;2023-04-15T06:30:10;7.90;;;6.80;;
78614;SDS011;67937;52.488;20.952;2023-04-15T06:32:38;9.80;;;7.00;;
78614;SDS011;67937;52.488;20.952;2023-04-15T06:35:06;9.80;;;6.90;;
78614;SDS011;67937;52.488;20.952;2023-04-15T06:37:34;7.90;;;6.00;;
78614;SDS011;67937;52.488;20.952;2023-04-15T06:40:02;9.70;;;6.70;;
78614;SDS011;67937;52.488;20.952;2023-04-15T06:42:31;8.60;;;7.30;;
78614;SDS011;67937;52.488;20.952;2023-04-15T06:44:59;11.90;;;7.90;;
78614;SDS011;67937;52.488;20.952;2023-04-15T06:47:27;9.70;;;6.60;;
78614;SDS011;67937;52.488;20.952;2023-04-15T06:49:55;8.40;;;6.50;;
78614;SDS011;67937;52.488;20.952;2023-04-15T06:52:23;9.30;;;7.00;;
78614;SDS011;67937;52.488;20.952;2023-04-15T06:54:51;9.00;;;6.20;;
78614;SDS011;67937;52.488;20.952;2023-04-15T06:57:20;10.70;;;6.70;;
78614;SDS011;67937;52.488;20.952;2023-04-15T06:59:48;8.00;;;6.70;;
78614;SDS011;67937;52.488;20.952;2023-04-15T07:02:16;8.40;;;6.00;;
78614;SDS011;67937;52.488;20.952;2023-04-15T07:04:57;9.80;;;7.10;;
78614;SDS011;67937;52.488;20.952;2023-04-15T07:07:46;10.00;;;7.50;;
78614;SDS011;67937;52.488;20.952;2023-04-15T07:10:14;9.30;;;6.30;;
78614;SDS011;67937;52.488;20.952;2023-04-15T07:12:42;8.20;;;6.80;;
78614;SDS011;67937;52.488;20.952;2023-04-15T07:15:10;9.30;;;7.40;;
78614;SDS011;67937;52.488;20.952;2023-04-15T07:17:40;7.60;;;5.70;;
78614;SDS011;67937;52.488;20.952;2023-04-15T07:20:09;9.00;;;5.60;;
78614;SDS011;67937;52.488;20.952;2023-04-15T07:22:38;9.20;;;5.40;;
78614;SDS011;67937;52.488;20.952;2023-04-15T07:25:06;9.90;;;7.40;;
78614;SDS011;67937;52.488;20.952;2023-04-15T07:27:35;9.50;;;6.50;;
78614;SDS011;67937;52.488;20.952;2023-04-15T07:30:03;7.50;;;5.80;;
78614;SDS011;67937;52.488;20.952;2023-04-15T07:32:33;7.70;;;6.00;;
78614;SDS011;67937;52.488;20.952;2023-04-15T07:35:01;8.50;;;6.20;;
78614;SDS011;67937;52.488;20.952;2023-04-15T07:37:29;10.20;;;6.00;;
78614;SDS011;67937;52.488;20.952;2023-04-15T07:39:57;8.80;;;6.40;;
78614;SDS011;67937;52.488;20.952;2023-04-15T07:42:26;7.90;;;6.00;;
78614;SDS011;67937;52.488;20.952;2023-04-15T07:44:54;8.50;;;6.40;;
78614;SDS011;67937;52.488;20.952;2023-04-15T07:47:23;9.40;;;6.80;;
78614;SDS011;67937;52.488;20.952;2023-04-15T07:49:52;8.70;;;7.00;;
78614;SDS011;67937;52.488;20.952;2023-04-15T07:52:20;8.70;;;5.90;;
78614;SDS011;67937;52.488;20.952;2023-04-15T07:54:48;8.30;;;5.20;;
78614;SDS011;67937;52.488;20.952;2023-04-15T07:57:16;9.30;;;5.20;;
78614;SDS011;67937;52.488;20.952;2023-04-15T07:59:44;6.50;;;5.80;;
78614;SDS011;67937;52.488;20.952;2023-04-15T08:02:12;7.90;;;5.80;;
78614;SDS011;67937;52.488;20.952;2023-04-15T08:04:41;6.80;;;6.10;;
78614;SDS011;67937;52.488;20.952;2023-04-15T08:07:09;8.10;;;5.00;;
78614;SDS011;67937;52.488;20.952;2023-04-15T08:09:37;6.80;;;4.30;;
78614;SDS011;67937;52.488;20.952;2023-04-15T08:12:05;7.00;;;5.30;;
78614;SDS011;67937;52.488;20.952;2023-04-15T08:14:34;5.80;;;5.10;;
78614;SDS011;67937;52.488;20.952;2023-04-15T08:17:02;6.40;;;4.40;;
78614;SDS011;67937;52.488;20.952;2023-04-15T08:19:31;5.40;;;4.90;;
78614;SDS011;67937;52.488;20.952;2023-04-15T08:21:59;6.40;;;4.80;;
78614;SDS011;67937;52.488;20.952;2023-04-15T08:24:27;6.00;;;4.90;;
78614;SDS011;67937;52.488;20.952;2023-04-15T08:26:56;4.20;;;3.50;;
78614;SDS011;67937;52.488;20.952;2023-04-15T08:29:25;4.50;;;3.50;;
78614;SDS011;67937;52.488;20.952;2023-04-15T08:31:53;7.50;;;5.20;;
78614;SDS011;67937;52.488;20.952;2023-04-15T08:34:21;6.90;;;4.90;;
78614;SDS011;67937;52.488;20.952;2023-04-15T08:36:50;9.70;;;5.00;;
78614;SDS011;67937;52.488;20.952;2023-04-15T08:39:18;7.80;;;5.40;;
78614;SDS011;67937;52.488;20.952;2023-04-15T08:41:47;4.40;;;3.90;;
78614;SDS011;67937;52.488;20.952;2023-04-15T08:44:21;7.80;;;5.10;;
78614;SDS011;67937;52.488;20.952;2023-04-15T08:46:50;4.40;;;3.90;;
78614;SDS011;67937;52.488;20.952;2023-04-15T08:49:20;5.20;;;4.70;;
78614;SDS011;67937;52.488;20.952;2023-04-15T08:51:48;5.80;;;4.50;;
78614;SDS011;67937;52.488;20.952;2023-04-15T08:54:16;5.60;;;4.60;;
78614;SDS011;67937;52.488;20.952;2023-04-15T08:56:45;5.20;;;4.00;;
78614;SDS011;67937;52.488;20.952;2023-04-15T08:59:14;8.30;;;4.80;;
78614;SDS011;67937;52.488;20.952;2023-04-15T09:01:43;6.40;;;5.00;;
78614;SDS011;67937;52.488;20.952;2023-04-15T09:04:12;5.80;;;3.90;;
78614;SDS011;67937;52.488;20.952;2023-04-15T09:06:40;5.30;;;4.70;;
78614;SDS011;67937;52.488;20.952;2023-04-15T09:09:09;4.30;;;3.80;;
78614;SDS011;67937;52.488;20.952;2023-04-15T09:11:37;4.50;;;4.10;;
78614;SDS011;67937;52.488;20.952;2023-04-15T09:14:05;3.60;;;3.20;;
78614;SDS011;67937;52.488;20.952;2023-04-15T09:16:55;7.60;;;4.80;;
78614;SDS011;67937;52.488;20.952;2023-04-15T09:19:24;4.70;;;4.20;;
78614;SDS011;67937;52.488;20.952;2023-04-15T09:21:53;4.50;;;3.70;;
78614;SDS011;67937;52.488;20.952;2023-04-15T09:24:23;4.50;;;3.90;;
78614;SDS011;67937;52.488;20.952;2023-04-15T09:26:53;4.40;;;3.70;;
78614;SDS011;67937;52.488;20.952;2023-04-15T09:29:24;4.70;;;4.10;;
78614;SDS011;67937;52.488;20.952;2023-04-15T09:31:53;5.20;;;3.80;;
78614;SDS011;67937;52.488;20.952;2023-04-15T09:34:21;4.90;;;4.40;;
78614;SDS011;67937;52.488;20.952;2023-04-15T09:37:02;5.10;;;3.80;;
78614;SDS011;67937;52.488;20.952;2023-04-15T09:39:46;4.60;;;3.80;;
78614;SDS011;67937;52.488;20.952;2023-04-15T09:42:16;4.30;;;3.50;;
78614;SDS011;67937;52.488;20.952;2023-04-15T09:44:50;5.30;;;4.10;;
78614;SDS011;67937;52.488;20.952;2023-04-15T09:47:28;3.90;;;3.50;;
78614;SDS011;67937;52.488;20.952;2023-04-15T09:50:00;5.30;;;3.80;;
78614;SDS011;67937;52.488;20.952;2023-04-15T09:52:29;3.70;;;3.20;;
78614;SDS011;67937;52.488;20.952;2023-04-15T09:54:57;2.40;;;2.20;;
78614;SDS011;67937;52.488;20.952;2023-04-15T09:57:34;3.60;;;3.20;;
78614;SDS011;67937;52.488;20.952;2023-04-15T10:00:06;3.00;;;2.70;;
78614;SDS011;67937;52.488;20.952;2023-04-15T10:02:36;3.70;;;3.30;;
78614;SDS011;67937;52.488;20.952;2023-04-15T10:07:39;3.40;;;3.10;;
78614;SDS011;67937;52.488;20.952;2023-04-15T10:10:09;4.00;;;3.60;;
78614;SDS011;67937;52.488;20.952;2023-04-15T10:12:39;3.60;;;3.20;;
78614;SDS011;67937;52.488;20.952;2023-04-15T10:15:10;4.00;;;3.50;;
78614;SDS011;67937;52.488;20.952;2023-04-15T10:17:43;3.60;;;3.30;;
78614;SDS011;67937;52.488;20.952;2023-04-15T10:20:12;3.40;;;2.60;;
78614;SDS011;67937;52.488;20.952;2023-04-15T10:22:41;3.30;;;2.90;;
78614;SDS011;67937;52.488;20.952;2023-04-15T10:25:12;4.40;;;3.50;;
78614;SDS011;67937;52.488;20.952;2023-04-15T10:27:42;3.50;;;2.90;;
78614;SDS011;67937;52.488;20.952;2023-04-15T10:30:11;3.50;;;3.20;;
78614;SDS011;67937;52.488;20.952;2023-04-15T10:32:40;4.50;;;3.70;;
78614;SDS011;67937;52.488;20.952;2023-04-15T10:35:08;4.00;;;3.10;;
78614;SDS011;67937;52.488;20.952;2023-04-15T10:37:37;3.70;;;3.00;;
78614;SDS011;67937;52.488;20.952;2023-04-15T10:40:49;2.30;;;2.00;;
78614;SDS011;67937;52.488;20.952;2023-04-15T10:42:59;3.30;;;2.60;;
78614;SDS011;67937;52.488;20.952;2023-04-15T10:45:32;4.60;;;3.20;;
78614;SDS011;67937;52.488;20.952;2023-04-15T10:48:02;3.30;;;2.50;;
78614;SDS011;67937;52.488;20.952;2023-04-15T10:50:33;4.10;;;3.20;;
78614;SDS011;67937;52.488;20.952;2023-04-15T10:53:04;4.50;;;3.30;;
78614;SDS011;67937;52.488;20.952;2023-04-15T10:55:32;4.10;;;3.70;;
78614;SDS011;67937;52.488;20.952;2023-04-15T10:58:01;4.80;;;3.10;;
78614;SDS011;67937;52.488;20.952;2023-04-15T11:00:30;3.60;;;3.00;;
78614;SDS011;67937;52.488;20.952;2023-04-15T11:05:48;3.40;;;2.70;;
78614;SDS011;67937;52.488;20.952;2023-04-15T11:08:18;2.90;;;2.70;;
78614;SDS011;67937;52.488;20.952;2023-04-15T11:13:16;3.30;;;3.00;;
78614;SDS011;67937;52.488;20.952;2023-04-15T11:15:47;3.80;;;3.40;;
78614;SDS011;67937;52.488;20.952;2023-04-15T11:18:20;2.00;;;1.80;;
78614;SDS011;67937;52.488;20.952;2023-04-15T11:20:50;4.70;;;3.10;;
78614;SDS011;67937;52.488;20.952;2023-04-15T11:23:27;4.10;;;3.10;;
78614;SDS011;67937;52.488;20.952;2023-04-15T11:26:03;3.10;;;2.70;;
78614;SDS011;67937;52.488;20.952;2023-04-15T11:28:35;3.50;;;2.90;;
78614;SDS011;67937;52.488;20.952;2023-04-15T11:31:07;3.20;;;2.90;;
78614;SDS011;67937;52.488;20.952;2023-04-15T11:33:46;2.50;;;2.20;;
78614;SDS011;67937;52.488;20.952;2023-04-15T11:36:25;3.30;;;2.90;;
78614;SDS011;67937;52.488;20.952;2023-04-15T11:38:54;3.10;;;2.90;;
78614;SDS011;67937;52.488;20.952;2023-04-15T11:41:24;2.80;;;2.60;;
78614;SDS011;67937;52.488;20.952;2023-04-15T11:43:52;4.00;;;2.90;;
78614;SDS011;67937;52.488;20.952;2023-04-15T11:46:20;4.10;;;2.90;;
78614;SDS011;67937;52.488;20.952;2023-04-15T11:48:48;3.30;;;2.90;;
78614;SDS011;67937;52.488;20.952;2023-04-15T11:51:16;1.80;;;1.70;;
78614;SDS011;67937;52.488;20.952;2023-04-15T11:53:50;2.70;;;2.40;;
78614;SDS011;67937;52.488;20.952;2023-04-15T11:56:19;3.80;;;2.50;;
78614;SDS011;67937;52.488;20.952;2023-04-15T11:58:55;2.40;;;2.20;;
78614;SDS011;67937;52.488;20.952;2023-04-15T12:01:31;2.90;;;2.70;;
78614;SDS011;67937;52.488;20.952;2023-04-15T12:04:01;2.90;;;2.50;;
78614;SDS011;67937;52.488;20.952;2023-04-15T12:06:33;3.50;;;2.80;;
78614;SDS011;67937;52.488;20.952;2023-04-15T12:09:07;2.80;;;2.60;;
78614;SDS011;67937;52.488;20.952;2023-04-15T12:11:39;3.90;;;2.40;;
78614;SDS011;67937;52.488;20.952;2023-04-15T12:14:23;2.80;;;2.60;;
78614;SDS011;67937;52.488;20.952;2023-04-15T12:17:02;3.00;;;2.20;;
78614;SDS011;67937;52.488;20.952;2023-04-15T12:19:36;3.30;;;2.80;;
78614;SDS011;67937;52.488;20.952;2023-04-15T12:22:09;2.50;;;2.30;;
78614;SDS011;67937;52.488;20.952;2023-04-15T12:24:38;4.20;;;3.80;;
78614;SDS011;67937;52.488;20.952;2023-04-15T12:27:10;2.70;;;2.50;;
78614;SDS011;67937;52.488;20.952;2023-04-15T12:29:40;2.80;;;2.50;;
78614;SDS011;67937;52.488;20.952;2023-04-15T12:32:10;3.90;;;2.40;;
78614;SDS011;67937;52.488;20.952;2023-04-15T12:34:40;2.90;;;2.40;;
78614;SDS011;67937;52.488;20.952;2023-04-15T12:37:11;2.10;;;1.90;;
78614;SDS011;67937;52.488;20.952;2023-04-15T12:39:40;2.30;;;2.20;;
78614;SDS011;67937;52.488;20.952;2023-04-15T12:42:11;2.40;;;2.20;;
78614;SDS011;67937;52.488;20.952;2023-04-15T12:44:39;3.10;;;2.20;;
78614;SDS011;67937;52.488;20.952;2023-04-15T12:47:08;2.50;;;2.10;;
78614;SDS011;67937;52.488;20.952;2023-04-15T12:49:37;2.70;;;2.50;;
78614;SDS011;67937;52.488;20.952;2023-04-15T12:52:06;1.90;;;1.80;;
78614;SDS011;67937;52.488;20.952;2023-04-15T12:54:34;1.80;;;1.70;;
78614;SDS011;67937;52.488;20.952;2023-04-15T12:57:02;2.50;;;2.30;;
78614;SDS011;67937;52.488;20.952;2023-04-15T12:59:30;2.50;;;2.30;;
78614;SDS011;67937;52.488;20.952;2023-04-15T13:01:59;2.30;;;2.00;;
78614;SDS011;67937;52.488;20.952;2023-04-15T13:04:28;2.70;;;1.80;;
78614;SDS011;67937;52.488;20.952;2023-04-15T13:06:56;2.80;;;1.90;;
78614;SDS011;67937;52.488;20.952;2023-04-15T13:09:24;2.80;;;1.90;;
78614;SDS011;67937;52.488;20.952;2023-04-15T13:11:53;1.60;;;1.50;;
78614;SDS011;67937;52.488;20.952;2023-04-15T13:14:21;1.80;;;1.70;;
78614;SDS011;67937;52.488;20.952;2023-04-15T13:16:49;2.00;;;1.90;;
78614;SDS011;67937;52.488;20.952;2023-04-15T13:19:17;2.20;;;2.00;;
78614;SDS011;67937;52.488;20.952;2023-04-15T13:21:45;1.60;;;1.50;;
78614;SDS011;67937;52.488;20.952;2023-04-15T13:24:13;2.00;;;1.80;;
78614;SDS011;67937;52.488;20.952;2023-04-15T13:26:41;1.40;;;1.30;;
78614;SDS011;67937;52.488;20.952;2023-04-15T13:29:10;2.00;;;1.80;;
78614;SDS011;67937;52.488;20.952;2023-04-15T13:31:39;1.40;;;1.30;;
78614;SDS011;67937;52.488;20.952;2023-04-15T13:34:07;1.80;;;1.60;;
78614;SDS011;67937;52.488;20.952;2023-04-15T13:36:35;2.70;;;2.50;;
78614;SDS011;67937;52.488;20.952;2023-04-15T13:39:03;1.80;;;1.60;;
78614;SDS011;67937;52.488;20.952;2023-04-15T13:41:32;3.40;;;2.00;;
78614;SDS011;67937;52.488;20.952;2023-04-15T13:44:00;2.30;;;2.00;;
78614;SDS011;67937;52.488;20.952;2023-04-15T13:46:28;1.90;;;1.80;;
78614;SDS011;67937;52.488;20.952;2023-04-15T13:48:56;1.80;;;1.70;;
78614;SDS011;67937;52.488;20.952;2023-04-15T13:51:24;3.20;;;2.10;;
78614;SDS011;67937;52.488;20.952;2023-04-15T13:53:52;2.40;;;2.20;;
78614;SDS011;67937;52.488;20.952;2023-04-15T13:56:20;2.10;;;1.90;;
78614;SDS011;67937;52.488;20.952;2023-04-15T13:58:48;1.70;;;1.50;;
78614;SDS011;67937;52.488;20.952;2023-04-15T14:01:16;2.70;;;1.70;;
78614;SDS011;67937;52.488;20.952;2023-04-15T14:03:44;1.70;;;1.60;;
78614;SDS011;67937;52.488;20.952;2023-04-15T14:06:12;2.80;;;2.60;;
78614;SDS011;67937;52.488;20.952;2023-04-15T14:08:40;3.10;;;1.70;;
78614;SDS011;67937;52.488;20.952;2023-04-15T14:11:09;2.10;;;1.90;;
78614;SDS011;67937;52.488;20.952;2023-04-15T14:13:37;1.90;;;1.50;;
78614;SDS011;67937;52.488;20.952;2023-04-15T14:16:05;1.20;;;1.10;;
78614;SDS011;67937;52.488;20.952;2023-04-15T14:18:33;1.50;;;1.30;;
78614;SDS011;67937;52.488;20.952;2023-04-15T14:21:03;1.20;;;1.10;;
78614;SDS011;67937;52.488;20.952;2023-04-15T14:23:32;2.20;;;1.30;;
78614;SDS011;67937;52.488;20.952;2023-04-15T14:26:00;1.80;;;1.50;;
78614;SDS011;67937;52.488;20.952;2023-04-15T14:28:28;1.10;;;1.00;;
78614;SDS011;67937;52.488;20.952;2023-04-15T14:30:57;1.70;;;1.40;;
78614;SDS011;67937;52.488;20.952;2023-04-15T14:33:25;1.50;;;1.30;;
78614;SDS011;67937;52.488;20.952;2023-04-15T14:35:53;0.90;;;0.90;;
78614;SDS011;67937;52.488;20.952;2023-04-15T14:38:22;1.80;;;1.40;;
78614;SDS011;67937;52.488;20.952;2023-04-15T14:40:50;2.10;;;1.90;;
78614;SDS011;67937;52.488;20.952;2023-04-15T14:43:19;1.80;;;1.60;;
78614;SDS011;67937;52.488;20.952;2023-04-15T14:45:47;1.80;;;1.60;;
78614;SDS011;67937;52.488;20.952;2023-04-15T14:48:16;6.60;;;2.00;;
78614;SDS011;67937;52.488;20.952;2023-04-15T14:50:45;1.70;;;1.60;;
78614;SDS011;67937;52.488;20.952;2023-04-15T14:53:13;2.40;;;1.80;;